Time;durP1;ratioP1;P1;durP2;ratioP2;P2;SDS_P1;SDS_P2;PMS_P1;PMS_P2;Temp;Humidity;BMP_temperature;BMP_pressure;BME280_temperature;BME280_humidity;BME280_pressure;Samples;Min_cycle;Max_cycle;Signal;HPM_P1;HPM_P2
2021/12/14 00:02:41;;;;;;;18.17;14.85;;;;;;;;;;10231595;28;20103;-54
2021/12/14 00:07:40;;;;;;;22.30;16.33;;;;;;;;;;10231424;28;20085;-52
2021/12/14 00:12:53;;;;;;;85.60;59.30;;;;;;;;;;10235488;28;20072;-53
2021/12/14 00:17:54;;;;;;;25.10;21.13;;;;;;;;;;10244904;28;20083;-51
2021/12/14 00:28:12;;;;;;;21.83;17.60;;;;;;;;;;10231582;28;20481;-53
2021/12/14 00:33:15;;;;;;;24.38;17.48;;;;;;;;;;10230928;28;20049;-52
2021/12/14 00:38:14;;;;;;;26.90;18.27;;;;;;;;;;10231482;28;20042;-53
2021/12/14 00:43:13;;;;;;;22.88;16.65;;;;;;;;;;10229538;28;20076;-53
2021/12/14 00:48:13;;;;;;;22.10;16.63;;;;;;;;;;10238789;28;20064;-54
2021/12/14 00:53:11;;;;;;;41.60;30.15;;;;;;;;;;10232518;28;20046;-52
2021/12/14 00:58:10;;;;;;;22.70;16.95;;;;;;;;;;10237325;28;20050;-51
2021/12/14 01:03:09;;;;;;;21.17;15.75;;;;;;;;;;10235822;28;20049;-55
2021/12/14 01:08:11;;;;;;;21.85;16.77;;;;;;;;;;10249433;28;20087;-54
2021/12/14 01:13:10;;;;;;;20.75;16.90;;;;;;;;;;10235914;28;20085;-54
2021/12/14 01:18:17;;;;;;;24.58;18.98;;;;;;;;;;10237133;28;20068;-53
2021/12/14 01:23:26;;;;;;;21.17;17.70;;;;;;;;;;10236622;28;20077;-52
2021/12/14 01:28:26;;;;;;;23.65;16.00;;;;;;;;;;10254865;28;20081;-54
2021/12/14 01:33:26;;;;;;;21.95;17.17;;;;;;;;;;10235365;28;20494;-54
2021/12/14 01:38:45;;;;;;;24.83;16.67;;;;;;;;;;10274593;28;20752;-50
2021/12/14 01:43:52;;;;;;;24.67;18.08;;;;;;;;;;10271215;28;20146;-54
2021/12/14 01:48:56;;;;;;;17.08;12.77;;;;;;;;;;10240539;28;20288;-55
2021/12/14 01:54:26;;;;;;;22.00;14.90;;;;;;;;;;10256375;28;20095;-56
2021/12/14 01:59:33;;;;;;;20.45;14.15;;;;;;;;;;10252588;28;20087;-56
2021/12/14 02:04:31;;;;;;;17.55;13.07;;;;;;;;;;10254455;28;20091;-55
2021/12/14 02:09:32;;;;;;;19.77;15.35;;;;;;;;;;10243573;28;20542;-54
2021/12/14 02:14:31;;;;;;;24.08;12.27;;;;;;;;;;10233233;28;20049;-55
2021/12/14 02:19:30;;;;;;;18.65;12.80;;;;;;;;;;10232971;28;20061;-52
2021/12/14 02:24:30;;;;;;;18.05;12.93;;;;;;;;;;10245974;28;20037;-54
2021/12/14 02:29:31;;;;;;;17.13;12.38;;;;;;;;;;10246612;28;20096;-55
2021/12/14 02:34:29;;;;;;;19.35;12.88;;;;;;;;;;10247724;28;20095;-54
2021/12/14 02:39:47;;;;;;;19.17;14.98;;;;;;;;;;10232702;28;20053;-52
2021/12/14 02:44:47;;;;;;;20.23;14.35;;;;;;;;;;10232355;28;20076;-52
2021/12/14 02:49:48;;;;;;;17.08;13.27;;;;;;;;;;10233837;28;20415;-54
2021/12/14 02:54:52;;;;;;;20.50;14.13;;;;;;;;;;10232031;28;20045;-58
2021/12/14 02:59:57;;;;;;;20.35;13.45;;;;;;;;;;10254082;28;20403;-56
2021/12/14 03:04:56;;;;;;;20.42;13.48;;;;;;;;;;10231466;28;20102;-53
2021/12/14 03:10:00;;;;;;;19.17;13.90;;;;;;;;;;10230730;28;20045;-55
2021/12/14 03:14:59;;;;;;;22.65;15.30;;;;;;;;;;10230610;28;20088;-52
2021/12/14 03:19:58;;;;;;;25.15;17.40;;;;;;;;;;10231922;28;20081;-51
2021/12/14 03:24:59;;;;;;;18.58;13.35;;;;;;;;;;10269528;28;20107;-51
2021/12/14 03:29:58;;;;;;;18.33;11.90;;;;;;;;;;10244437;28;20085;-51
2021/12/14 03:34:59;;;;;;;17.65;11.65;;;;;;;;;;10243767;28;20498;-54
2021/12/14 03:40:00;;;;;;;21.00;12.98;;;;;;;;;;10242163;28;20073;-53
2021/12/14 03:45:01;;;;;;;18.67;12.82;;;;;;;;;;10240847;28;20049;-53
2021/12/14 03:50:08;;;;;;;20.52;12.23;;;;;;;;;;10250444;28;20088;-55
2021/12/14 03:55:10;;;;;;;17.20;13.40;;;;;;;;;;10246871;28;20060;-50
2021/12/14 04:00:10;;;;;;;24.33;14.63;;;;;;;;;;10239936;28;20081;-51
2021/12/14 04:05:18;;;;;;;25.35;15.15;;;;;;;;;;10250337;28;20088;-53
2021/12/14 04:10:19;;;;;;;46.53;24.45;;;;;;;;;;10230444;28;20073;-48
2021/12/14 04:15:21;;;;;;;29.47;16.77;;;;;;;;;;10229887;28;20069;-53
2021/12/14 04:20:21;;;;;;;48.67;22.95;;;;;;;;;;10229333;28;20060;-49
2021/12/14 04:25:23;;;;;;;73.70;27.05;;;;;;;;;;10243686;28;20498;-53
2021/12/14 04:30:22;;;;;;;92.43;32.97;;;;;;;;;;10236271;28;20080;-53
2021/12/14 04:35:21;;;;;;;35.97;20.88;;;;;;;;;;10284660;28;20053;-51
2021/12/14 04:40:36;;;;;;;30.15;17.05;;;;;;;;;;10275963;28;20188;-52
2021/12/14 04:56:06;;;;;;;;;;;;;;;;;;10257592;28;20073;-54
2021/12/14 05:01:08;;;;;;;29.10;18.77;;;;;;;;;;10273935;28;19939;-51
2021/12/14 05:06:15;;;;;;;18.92;14.65;;;;;;;;;;10268327;28;20443;-51
2021/12/14 05:11:15;;;;;;;34.40;18.77;;;;;;;;;;10253037;28;20157;-55
2021/12/14 05:16:17;;;;;;;38.53;19.63;;;;;;;;;;10235422;28;20046;-52
2021/12/14 05:21:22;;;;;;;37.97;21.65;;;;;;;;;;10236161;28;20042;-52
2021/12/14 05:26:21;;;;;;;18.33;13.00;;;;;;;;;;10235704;28;20053;-52
2021/12/14 05:31:22;;;;;;;20.77;14.20;;;;;;;;;;10234594;28;20092;-52
2021/12/14 05:36:21;;;;;;;28.20;19.50;;;;;;;;;;10249060;28;20049;-50
2021/12/14 05:46:49;;;;;;;23.50;16.30;;;;;;;;;;10235743;28;20045;-53
2021/12/14 05:52:13;;;;;;;22.33;15.88;;;;;;;;;;10233724;28;20096;-53
2021/12/14 05:57:14;;;;;;;26.13;17.63;;;;;;;;;;10254209;28;20080;-54
2021/12/14 06:02:14;;;;;;;27.63;18.05;;;;;;;;;;10251424;28;20053;-54
2021/12/14 06:07:18;;;;;;;17.67;14.77;;;;;;;;;;10252055;28;20057;-55
2021/12/14 06:12:19;;;;;;;25.92;16.95;;;;;;;;;;10269860;28;20084;-53
2021/12/14 06:17:23;;;;;;;18.80;14.20;;;;;;;;;;10251853;28;20091;-51
2021/12/14 06:22:22;;;;;;;35.17;22.98;;;;;;;;;;10246477;28;20065;-51
2021/12/14 06:27:22;;;;;;;20.63;14.00;;;;;;;;;;10241410;28;20514;-54
2021/12/14 06:32:25;;;;;;;19.67;14.82;;;;;;;;;;10248730;28;20099;-55
2021/12/14 06:38:10;;;;;;;21.35;13.88;;;;;;;;;;10234378;28;20041;-51
2021/12/14 06:43:10;;;;;;;18.83;12.23;;;;;;;;;;10269398;28;20053;-53
2021/12/14 06:48:13;;;;;;;27.38;18.58;;;;;;;;;;10267644;28;20135;-53
2021/12/14 06:53:13;;;;;;;27.52;17.73;;;;;;;;;;10252983;28;20075;-53
2021/12/14 06:58:32;;;;;;;18.20;13.18;;;;;;;;;;10229440;28;20095;-54
2021/12/14 07:03:44;;;;;;;29.00;19.15;;;;;;;;;;10228546;28;20046;-54
2021/12/14 07:08:43;;;;;;;27.05;16.17;;;;;;;;;;10261974;28;20045;-52
2021/12/14 07:13:42;;;;;;;20.73;15.00;;;;;;;;;;10240905;28;20068;-53
2021/12/14 07:18:42;;;;;;;35.33;21.80;;;;;;;;;;10236161;28;20068;-53
2021/12/14 07:23:41;;;;;;;23.52;16.20;;;;;;;;;;10224986;28;20065;-54
2021/12/14 07:28:41;;;;;;;25.73;18.75;;;;;;;;;;10222450;28;20073;-52
2021/12/14 07:33:43;;;;;;;28.63;15.77;;;;;;;;;;10231226;28;20159;-54
2021/12/14 07:38:45;;;;;;;26.38;16.40;;;;;;;;;;10228177;28;20071;-55
2021/12/14 07:43:46;;;;;;;29.17;17.58;;;;;;;;;;10222730;28;20084;-50
2021/12/14 07:48:46;;;;;;;31.98;19.73;;;;;;;;;;10225430;28;20471;-51
2021/12/14 07:53:47;;;;;;;33.00;17.92;;;;;;;;;;10237965;28;20084;-51
2021/12/14 07:58:47;;;;;;;41.03;24.48;;;;;;;;;;10232720;28;20120;-50
2021/12/14 08:03:47;;;;;;;35.75;22.27;;;;;;;;;;10232272;28;20138;-55
2021/12/14 08:08:53;;;;;;;59.08;36.22;;;;;;;;;;10239012;28;20080;-54
2021/12/14 08:13:52;;;;;;;30.55;18.20;;;;;;;;;;10238316;28;20054;-52
2021/12/14 08:18:51;;;;;;;38.90;26.27;;;;;;;;;;10235999;28;20080;-55
2021/12/14 08:23:52;;;;;;;110.10;59.72;;;;;;;;;;10231925;28;20140;-55
2021/12/14 08:28:52;;;;;;;70.20;40.55;;;;;;;;;;10232527;28;20119;-54
2021/12/14 08:33:55;;;;;;;33.92;18.90;;;;;;;;;;10232595;28;20432;-54
2021/12/14 08:39:07;;;;;;;36.05;22.08;;;;;;;;;;10232647;28;20159;-53
2021/12/14 08:44:10;;;;;;;41.35;28.00;;;;;;;;;;10233515;28;20050;-54
2021/12/14 08:49:09;;;;;;;57.35;33.97;;;;;;;;;;10267800;28;20052;-52
2021/12/14 08:54:10;;;;;;;44.83;26.45;;;;;;;;;;10274627;28;20518;-54
2021/12/14 08:59:08;;;;;;;42.90;25.67;;;;;;;;;;10267462;28;20099;-54
2021/12/14 09:04:09;;;;;;;45.33;25.95;;;;;;;;;;10243543;28;20459;-55
2021/12/14 09:09:10;;;;;;;43.83;25.50;;;;;;;;;;10234120;28;20079;-51
2021/12/14 09:14:13;;;;;;;91.05;48.92;;;;;;;;;;10230276;28;20115;-53
2021/12/14 09:19:14;;;;;;;29.65;22.35;;;;;;;;;;10230571;28;20042;-51
2021/12/14 09:24:17;;;;;;;26.25;20.40;;;;;;;;;;10228029;28;20076;-52
2021/12/14 09:29:17;;;;;;;29.77;20.45;;;;;;;;;;10234793;28;20073;-55
2021/12/14 09:34:16;;;;;;;26.10;19.40;;;;;;;;;;10233292;28;20079;-57
2021/12/14 09:39:19;;;;;;;45.80;29.60;;;;;;;;;;10234178;28;20087;-53
2021/12/14 09:44:17;;;;;;;63.00;33.15;;;;;;;;;;10263000;28;20080;-55
2021/12/14 09:49:16;;;;;;;57.10;35.55;;;;;;;;;;10272107;28;20437;-56
2021/12/14 09:54:18;;;;;;;39.28;24.45;;;;;;;;;;10272564;28;20061;-51
2021/12/14 09:59:17;;;;;;;22.92;15.77;;;;;;;;;;10224348;28;1112078;-55
2021/12/14 10:04:16;;;;;;;23.70;18.00;;;;;;;;;;10237665;28;20052;-54
2021/12/14 10:09:20;;;;;;;25.92;19.05;;;;;;;;;;10235949;28;20069;-56
2021/12/14 10:14:19;;;;;;;83.90;38.13;;;;;;;;;;10262997;28;20077;-53
2021/12/14 10:19:23;;;;;;;51.58;26.00;;;;;;;;;;10245164;28;20475;-54
2021/12/14 10:24:23;;;;;;;51.28;23.63;;;;;;;;;;10251739;28;20081;-54
2021/12/14 10:29:23;;;;;;;30.45;16.52;;;;;;;;;;10234584;28;20093;-54
2021/12/14 10:34:24;;;;;;;27.70;14.93;;;;;;;;;;10234860;28;20070;-53
2021/12/14 10:39:37;;;;;;;47.80;23.38;;;;;;;;;;10235034;28;20068;-54
2021/12/14 10:44:39;;;;;;;29.05;16.73;;;;;;;;;;10243888;28;20443;-54
2021/12/14 10:49:38;;;;;;;24.20;16.45;;;;;;;;;;10235118;28;20087;-52
2021/12/14 10:54:38;;;;;;;16.00;11.65;;;;;;;;;;10233018;28;20446;-54
2021/12/14 10:59:38;;;;;;;25.65;15.80;;;;;;;;;;10232363;28;20053;-54
2021/12/14 11:04:39;;;;;;;36.58;22.05;;;;;;;;;;10231635;28;20522;-53
2021/12/14 11:09:41;;;;;;;31.73;18.90;;;;;;;;;;10229736;28;20113;-53
2021/12/14 11:14:39;;;;;;;29.50;18.67;;;;;;;;;;10240883;28;20072;-52
2021/12/14 11:19:39;;;;;;;34.42;18.75;;;;;;;;;;10231535;28;20068;-53
2021/12/14 11:24:40;;;;;;;61.60;34.00;;;;;;;;;;10231157;28;20045;-51
2021/12/14 11:29:38;;;;;;;30.13;19.42;;;;;;;;;;10231656;28;20210;-52
2021/12/14 11:34:39;;;;;;;34.60;21.38;;;;;;;;;;10230800;28;20478;-53
2021/12/14 11:39:41;;;;;;;26.08;16.73;;;;;;;;;;10231421;28;20136;-53
2021/12/14 11:44:42;;;;;;;18.73;14.20;;;;;;;;;;10232283;28;20080;-51
2021/12/14 11:49:47;;;;;;;38.78;24.17;;;;;;;;;;10232002;28;20085;-55
2021/12/14 11:54:48;;;;;;;37.27;21.57;;;;;;;;;;10242188;28;20076;-51
2021/12/14 11:59:46;;;;;;;21.02;14.68;;;;;;;;;;10230504;28;20816;-53
2021/12/14 12:04:47;;;;;;;38.88;21.85;;;;;;;;;;10229637;28;20065;-55
2021/12/14 12:09:48;;;;;;;40.47;23.25;;;;;;;;;;10230322;28;20379;-54
2021/12/14 12:14:48;;;;;;;38.22;21.52;;;;;;;;;;10229184;28;20479;-56
2021/12/14 12:19:56;;;;;;;25.25;19.02;;;;;;;;;;10240053;28;20137;-51
2021/12/14 12:24:57;;;;;;;42.33;25.58;;;;;;;;;;10227312;28;20380;-52
2021/12/14 12:30:09;;;;;;;24.58;16.42;;;;;;;;;;10229225;28;20084;-50
2021/12/14 12:35:21;;;;;;;69.47;36.20;;;;;;;;;;10229122;28;20077;-51
2021/12/14 12:40:32;;;;;;;23.63;17.00;;;;;;;;;;10229119;28;20083;-51
2021/12/14 12:45:34;;;;;;;31.92;21.25;;;;;;;;;;10237970;28;20137;-50
2021/12/14 12:50:32;;;;;;;25.80;18.67;;;;;;;;;;10240759;28;20487;-48
2021/12/14 12:55:35;;;;;;;34.53;23.52;;;;;;;;;;10243030;28;20463;-48
2021/12/14 13:00:37;;;;;;;70.13;40.67;;;;;;;;;;10233911;28;20490;-50
2021/12/14 13:05:54;;;;;;;35.17;23.98;;;;;;;;;;10235919;28;20085;-53
2021/12/14 13:10:56;;;;;;;24.90;20.48;;;;;;;;;;10235258;28;20428;-55
2021/12/14 13:16:00;;;;;;;45.47;29.95;;;;;;;;;;10234798;28;20073;-50
2021/12/14 13:21:01;;;;;;;30.70;22.30;;;;;;;;;;10236861;28;20481;-53
2021/12/14 13:26:00;;;;;;;27.88;20.20;;;;;;;;;;10236514;28;20076;-54
2021/12/14 13:30:59;;;;;;;33.80;22.90;;;;;;;;;;10235734;28;20547;-52
2021/12/14 13:35:57;;;;;;;27.33;19.08;;;;;;;;;;10235482;28;20084;-52
2021/12/14 13:41:03;;;;;;;21.38;15.95;;;;;;;;;;10235248;28;20053;-56
2021/12/14 13:46:03;;;;;;;19.88;15.88;;;;;;;;;;10233430;28;20100;-53
2021/12/14 13:51:04;;;;;;;25.40;16.45;;;;;;;;;;10233682;28;20527;-50
2021/12/14 13:56:04;;;;;;;33.20;21.58;;;;;;;;;;10233283;28;20276;-52
2021/12/14 14:01:04;;;;;;;95.30;57.88;;;;;;;;;;10230991;28;20043;-53
2021/12/14 14:06:04;;;;;;;61.33;40.13;;;;;;;;;;10266248;28;20080;-52
2021/12/14 14:11:10;;;;;;;66.20;41.58;;;;;;;;;;10272039;28;20048;-52
2021/12/14 14:16:09;;;;;;;33.53;23.17;;;;;;;;;;10271463;28;20076;-54
2021/12/14 14:21:09;;;;;;;23.95;16.40;;;;;;;;;;10272030;28;20424;-53
2021/12/14 14:26:09;;;;;;;50.70;33.25;;;;;;;;;;10272769;28;20041;-54
2021/12/14 14:31:09;;;;;;;43.15;31.50;;;;;;;;;;10267990;28;20451;-54
2021/12/14 14:36:09;;;;;;;49.97;34.28;;;;;;;;;;10267129;28;20068;-54
2021/12/14 14:41:37;;;;;;;40.38;29.38;;;;;;;;;;10266806;28;20087;-54
2021/12/14 14:46:54;;;;;;;21.80;15.23;;;;;;;;;;10167454;28;20081;-54
2021/12/14 14:51:55;;;;;;;29.05;16.83;;;;;;;;;;10228095;28;20073;-52
2021/12/14 14:56:53;;;;;;;34.28;20.98;;;;;;;;;;10260246;28;20045;-54
2021/12/14 15:01:52;;;;;;;64.88;38.75;;;;;;;;;;10229722;28;20037;-55
2021/12/14 15:06:51;;;;;;;54.20;35.53;;;;;;;;;;10227843;28;20052;-53
2021/12/14 15:11:52;;;;;;;50.60;32.92;;;;;;;;;;10238926;28;20080;-54
2021/12/14 15:16:52;;;;;;;46.90;30.65;;;;;;;;;;10226551;28;20069;-53
2021/12/14 15:22:08;;;;;;;114.82;61.95;;;;;;;;;;10258226;28;20059;-55
2021/12/14 15:27:25;;;;;;;103.68;59.83;;;;;;;;;;10263793;28;20089;-53
2021/12/14 15:32:25;;;;;;;72.53;42.10;;;;;;;;;;10262984;28;20077;-55
2021/12/14 15:37:32;;;;;;;54.45;32.00;;;;;;;;;;10238660;28;20080;-53
2021/12/14 15:42:47;;;;;;;64.18;40.83;;;;;;;;;;10234809;28;20045;-54
2021/12/14 15:48:00;;;;;;;30.05;23.13;;;;;;;;;;10225844;28;20067;-53
2021/12/14 15:53:14;;;;;;;48.83;36.78;;;;;;;;;;10233654;28;20108;-54
2021/12/14 15:58:14;;;;;;;39.92;27.92;;;;;;;;;;10227773;28;20050;-55
2021/12/14 16:03:19;;;;;;;60.70;42.60;;;;;;;;;;10224792;28;20049;-54
2021/12/14 16:08:18;;;;;;;32.03;23.17;;;;;;;;;;10226296;28;20390;-54
2021/12/14 16:18:34;;;;;;;55.67;35.53;;;;;;;;;;10233615;28;20068;-54
2021/12/14 16:23:34;;;;;;;76.47;47.13;;;;;;;;;;10231775;28;20076;-53
2021/12/14 16:28:35;;;;;;;124.07;75.60;;;;;;;;;;10239583;28;20468;-50
2021/12/14 16:33:35;;;;;;;100.25;56.10;;;;;;;;;;10238920;28;20065;-53
2021/12/14 16:38:35;;;;;;;81.00;50.88;;;;;;;;;;10239199;28;20200;-53
2021/12/14 16:43:36;;;;;;;76.32;49.63;;;;;;;;;;10246502;28;20281;-53
2021/12/14 16:48:36;;;;;;;62.60;40.55;;;;;;;;;;10241702;28;20113;-52
2021/12/14 16:53:42;;;;;;;97.85;57.70;;;;;;;;;;10250099;28;20088;-51
2021/12/14 16:58:41;;;;;;;74.90;54.88;;;;;;;;;;10276581;28;20073;-55
2021/12/14 17:03:40;;;;;;;99.35;52.70;;;;;;;;;;10270664;28;20073;-54
2021/12/14 17:08:40;;;;;;;73.13;43.78;;;;;;;;;;10237344;28;20045;-54
2021/12/14 17:13:42;;;;;;;55.60;33.30;;;;;;;;;;10237491;28;20076;-52
2021/12/14 17:18:43;;;;;;;64.03;39.13;;;;;;;;;;10237806;28;20095;-53
2021/12/14 17:23:42;;;;;;;44.22;28.10;;;;;;;;;;10248023;28;20126;-54
2021/12/14 17:28:42;;;;;;;48.78;27.80;;;;;;;;;;10273411;28;20079;-53
2021/12/14 17:33:43;;;;;;;53.03;29.02;;;;;;;;;;10274834;28;20084;-52
2021/12/14 17:38:41;;;;;;;65.38;37.03;;;;;;;;;;10275045;28;20037;-49
2021/12/14 17:43:40;;;;;;;71.45;39.45;;;;;;;;;;10274934;28;20079;-50
2021/12/14 17:48:38;;;;;;;201.45;92.30;;;;;;;;;;10274851;28;20052;-52
2021/12/14 17:53:38;;;;;;;62.65;38.92;;;;;;;;;;10274504;28;20099;-52
2021/12/14 17:58:39;;;;;;;46.30;27.15;;;;;;;;;;10274116;28;20133;-52
2021/12/14 18:03:39;;;;;;;56.95;32.13;;;;;;;;;;10273179;28;20053;-49
2021/12/14 18:08:39;;;;;;;36.22;22.05;;;;;;;;;;10275298;28;20048;-55
2021/12/14 18:13:39;;;;;;;74.90;45.42;;;;;;;;;;10271564;28;20084;-56
2021/12/14 18:23:56;;;;;;;38.13;24.20;;;;;;;;;;10274157;28;20073;-53
2021/12/14 18:28:56;;;;;;;54.75;28.27;;;;;;;;;;10273731;28;20060;-53
2021/12/14 18:33:56;;;;;;;51.63;34.58;;;;;;;;;;10273372;28;20114;-56
2021/12/14 18:38:58;;;;;;;51.90;34.75;;;;;;;;;;10273520;28;20033;-54
2021/12/14 18:43:56;;;;;;;59.78;37.85;;;;;;;;;;10272519;28;20076;-51
2021/12/14 18:54:15;;;;;;;72.70;45.35;;;;;;;;;;10262126;28;20073;-54
2021/12/14 18:59:16;;;;;;;71.22;48.83;;;;;;;;;;10242083;28;20495;-54
2021/12/14 19:04:15;;;;;;;91.43;58.28;;;;;;;;;;10236071;28;20049;-54
2021/12/14 19:09:23;;;;;;;76.38;48.72;;;;;;;;;;10233083;28;20447;-52
2021/12/14 19:14:43;;;;;;;72.40;45.67;;;;;;;;;;10266345;28;20080;-52
2021/12/14 19:19:41;;;;;;;42.38;30.48;;;;;;;;;;10271878;28;20052;-55
2021/12/14 19:24:42;;;;;;;76.13;47.00;;;;;;;;;;10263906;28;20087;-54
2021/12/14 19:29:42;;;;;;;56.65;36.35;;;;;;;;;;10243112;28;20068;-54
2021/12/14 19:34:42;;;;;;;36.92;26.73;;;;;;;;;;10231966;28;20099;-55
2021/12/14 19:39:43;;;;;;;37.42;24.58;;;;;;;;;;10232404;28;20073;-55
2021/12/14 19:44:41;;;;;;;33.05;22.20;;;;;;;;;;10231848;28;20534;-54
2021/12/14 19:49:41;;;;;;;37.05;26.25;;;;;;;;;;10231498;28;20077;-54
2021/12/14 19:54:41;;;;;;;32.00;22.88;;;;;;;;;;10240515;28;20072;-53
2021/12/14 19:59:42;;;;;;;29.48;22.30;;;;;;;;;;10235514;28;20056;-55
2021/12/14 20:04:40;;;;;;;35.75;26.40;;;;;;;;;;10240496;28;20171;-55
2021/12/14 20:09:40;;;;;;;32.85;23.25;;;;;;;;;;10240490;28;20117;-54
2021/12/14 20:14:49;;;;;;;38.58;29.70;;;;;;;;;;10240284;28;20176;-53
2021/12/14 20:19:49;;;;;;;57.22;38.47;;;;;;;;;;10239143;28;20064;-53
2021/12/14 20:24:48;;;;;;;55.40;39.97;;;;;;;;;;10256237;28;20556;-53
2021/12/14 20:29:47;;;;;;;44.90;31.55;;;;;;;;;;10245335;28;20076;-50
2021/12/14 20:34:49;;;;;;;115.93;80.53;;;;;;;;;;10245942;28;20493;-54
2021/12/14 20:39:52;;;;;;;134.82;89.53;;;;;;;;;;10248756;28;20041;-54
2021/12/14 20:45:13;;;;;;;51.17;36.08;;;;;;;;;;10250516;28;20079;-54
2021/12/14 20:50:13;;;;;;;30.08;19.70;;;;;;;;;;10252138;28;20065;-56
2021/12/14 20:55:16;;;;;;;37.53;24.67;;;;;;;;;;10246918;28;20076;-52
2021/12/14 21:00:16;;;;;;;31.25;21.27;;;;;;;;;;10243767;28;20517;-53
2021/12/14 21:05:15;;;;;;;36.38;24.33;;;;;;;;;;10251514;28;20084;-53
2021/12/14 21:10:17;;;;;;;107.32;71.65;;;;;;;;;;10241855;28;20068;-53
2021/12/14 21:15:19;;;;;;;63.65;45.05;;;;;;;;;;10246340;28;20088;-50
2021/12/14 21:20:19;;;;;;;43.25;31.02;;;;;;;;;;10256315;28;20069;-55
2021/12/14 21:25:22;;;;;;;51.28;33.47;;;;;;;;;;10248618;28;20075;-53
2021/12/14 21:30:23;;;;;;;60.53;43.22;;;;;;;;;;10270905;28;20057;-53
2021/12/14 21:35:43;;;;;;;48.55;34.67;;;;;;;;;;10275796;28;20107;-52
2021/12/14 21:40:46;;;;;;;29.02;21.00;;;;;;;;;;10251521;28;20072;-53
2021/12/14 21:45:53;;;;;;;65.85;46.50;;;;;;;;;;10237010;28;20081;-54
2021/12/14 21:50:52;;;;;;;37.13;25.63;;;;;;;;;;10269777;28;20064;-52
2021/12/14 21:55:51;;;;;;;38.78;27.75;;;;;;;;;;10256455;28;20089;-54
2021/12/14 22:00:50;;;;;;;35.17;23.88;;;;;;;;;;10254368;28;20084;-54
2021/12/14 22:05:48;;;;;;;27.02;21.55;;;;;;;;;;10235284;28;20462;-51
2021/12/14 22:10:47;;;;;;;32.95;21.85;;;;;;;;;;10238973;28;20068;-53
2021/12/14 22:15:52;;;;;;;31.73;20.40;;;;;;;;;;10245341;28;20079;-49
2021/12/14 22:20:52;;;;;;;40.05;30.90;;;;;;;;;;10243796;28;20072;-49
2021/12/14 22:25:50;;;;;;;71.57;48.28;;;;;;;;;;10234784;28;20081;-51
2021/12/14 22:30:50;;;;;;;49.35;36.35;;;;;;;;;;10234110;28;20069;-53
2021/12/14 22:35:50;;;;;;;57.28;39.67;;;;;;;;;;10233522;28;20477;-53
2021/12/14 22:41:12;;;;;;;63.20;43.08;;;;;;;;;;10236199;28;20073;-50
2021/12/14 22:46:11;;;;;;;56.92;39.75;;;;;;;;;;10233969;28;20507;-50
2021/12/14 22:51:10;;;;;;;103.70;54.58;;;;;;;;;;10243889;28;20092;-49
2021/12/14 22:56:08;;;;;;;39.85;25.67;;;;;;;;;;10233058;28;20088;-54
2021/12/14 23:01:08;;;;;;;52.78;33.30;;;;;;;;;;10233121;28;20052;-54
2021/12/14 23:06:08;;;;;;;41.20;27.73;;;;;;;;;;10242738;28;20046;-54
2021/12/14 23:11:06;;;;;;;45.22;29.10;;;;;;;;;;10232482;28;20471;-53
2021/12/14 23:16:10;;;;;;;58.60;37.08;;;;;;;;;;10232971;28;20084;-51
2021/12/14 23:21:11;;;;;;;51.90;32.92;;;;;;;;;;10245671;28;20069;-53
2021/12/14 23:26:11;;;;;;;70.22;44.55;;;;;;;;;;10245354;28;20103;-54
2021/12/14 23:31:10;;;;;;;48.22;31.50;;;;;;;;;;10242308;28;20049;-49
2021/12/14 23:36:12;;;;;;;68.43;40.92;;;;;;;;;;10231057;28;20087;-54
2021/12/14 23:41:11;;;;;;;80.10;47.35;;;;;;;;;;10231559;28;20323;-54
2021/12/14 23:47:22;;;;;;;67.53;40.72;;;;;;;;;;10231529;28;20084;-54
2021/12/14 23:51:33;;;;;;;37.13;23.73;;;;;;;;;;10231680;28;20081;-55
2021/12/14 23:56:32;;;;;;;26.02;16.50;;;;;;;;;;10240951;28;20088;-54
